Home > Products > Valid Products > MTR

000
SAUS44 KLCH 231454
MTRP92
METAR KP92 231453Z AUTO 00000KT 24/18 A2999 RMK AO1 SLP155 T02440178
53010





000
SAUS44 KLCH 231355
MTRP92
METAR KP92 231353Z AUTO VRB03KT 23/18 A2998 RMK AO1 SLP150 T02280183





000
SAUS44 KLCH 231254
MTRP92
METAR KP92 231253Z AUTO 35003KT 21/18 A2998 RMK AO1 SLP150 T02060178





000
SAUS44 KLCH 231155
MTRP92
METAR KP92 231153Z AUTO 00000KT 18/17 A2996 RMK AO1 SLP145 60001
70001 T01830172 10217 20183 53011 $





000
SAUS44 KLCH 231054
MTRP92
METAR KP92 231053Z AUTO 00000KT 19/18 A2994 RMK AO1 SLP139 P0001
T01890178 $





000
SAUS44 KLCH 230954
MTRP92
METAR KP92 230953Z AUTO 00000KT 19/18 A2993 RMK AO1 SLP136 T01940183
$





000
SAUS44 KLCH 230854
MTRP92
METAR KP92 230853Z AUTO 00000KT 20/19 A2993 RMK AO1 SLP134 T02000189
55003 $





000
SAUS44 KLCH 230754
MTRP92
METAR KP92 230753Z AUTO 00000KT 22/20 A2993 RMK AO1 SLP133 T02170200
$





000
SAUS44 KLCH 230655
MTRP92
METAR KP92 230653Z AUTO 00000KT 22/21 A2993 RMK AO1 SLP136 T02170206
$





000
SAUS44 KLCH 230555
MTRP92
METAR KP92 230553Z AUTO 00000KT 21/19 A2994 RMK AO1 SLP137 T02110194
10239 20211 402500211 $





000
SAUS44 KLCH 230454
MTRP92
METAR KP92 230453Z AUTO 00000KT 22/21 A2994 RMK AO1 SLP136 T02170206





000
SAUS44 KLCH 230354
MTRP92
METAR KP92 230353Z AUTO 00000KT 22/21 A2994 RMK AO1 SLP137 T02220206





000
SAUS44 KLCH 230254
MTRP92
METAR KP92 230253Z AUTO VRB03KT 23/21 A2993 RMK AO1 SLP135 T02280206
51015





000
SAUS44 KLCH 230154
MTRP92
METAR KP92 230153Z AUTO 00000KT 23/21 A2992 RMK AO1 SLP132 T02280206





000
SAUS44 KLCH 230056
MTRP92
METAR KP92 230053Z AUTO 29004KT 23/21 A2990 RMK AO1 SLP124 T02280206





000
SAUS44 KLCH 222354
MTRP92
METAR KP92 222353Z AUTO VRB05KT 23/21 A2989 RMK AO1 SLP120 T02330206
10250 20228 56010





000
SAUS44 KLCH 222254
MTRP92
METAR KP92 222253Z AUTO VRB05KT 24/21 A2989 RMK AO1 SLP121 T02440206





000
SAUS44 KLCH 222154
MTRP92
METAR KP92 222153Z AUTO VRB05KT 25/21 A2990 RMK AO1 SLP125 T02500206





000
SAUS44 KLCH 222054
MTRP92
METAR KP92 222053Z AUTO 24007KT 220V290 24/21 A2992 RMK AO1 SLP131
T02440206 58017





000
SAUS44 KLCH 221954
MTRP92
METAR KP92 221953Z AUTO VRB05KT 23/20 A2994 RMK AO1 SLP139 T02330200





000
SAUS44 KLCH 221855
MTRP92
METAR KP92 221853Z AUTO 24005KT 23/20 A2996 RMK AO1 SLP144 T02280200





000
SAUS44 KLCH 221754
MTRP92
METAR KP92 221753Z AUTO VRB03KT 23/19 A2997 RMK AO1 SLP147 T02280194
10239 20217 58011





000
SAUS44 KLCH 221655
MTRP92
METAR KP92 221653Z AUTO 24006KT 24/20 A2998 RMK AO1 SLP152 T02390200





000
SAUS44 KLCH 221554
MTRP92
METAR KP92 221553Z AUTO 25004KT 23/19 A2999 RMK AO1 SLP156 T02280194





000
SAUS44 KLCH 221454
MTRP92
METAR KP92 221453Z AUTO 26005KT 22/19 A3000 RMK AO1 SLP159 T02220194
55002





000
SAUS44 KLCH 221354
MTRP92
METAR KP92 221353Z AUTO 24004KT 22/19 A2999 RMK AO1 SLP156 T02170194





000
SAUS44 KLCH 221254
MTRP92
METAR KP92 221253Z AUTO VRB03KT 22/19 A2999 RMK AO1 SLP155 T02220189





000
SAUS44 KLCH 221155
MTRP92
METAR KP92 221153Z AUTO 26003KT 22/19 A3001 RMK AO1 SLP160 70001
T02170189 10217 20211 53012





000
SAUS44 KLCH 221054
MTRP92
METAR KP92 221053Z AUTO 25005KT 22/18 A2998 RMK AO1 SLP153 T02170183





000
SAUS44 KLCH 220954
MTRP92
METAR KP92 220953Z AUTO VRB04KT 21/18 A2997 RMK AO1 SLP147 T02110183





000
SAUS44 KLCH 220854
MTRP92
METAR KP92 220853Z AUTO VRB05KT 22/19 A2997 RMK AO1 SLP149 T02170189





000
SAUS44 KLCH 220754
MTRP92
METAR KP92 220753Z AUTO 25005KT 21/19 A2997 RMK AO1 SLP150 T02110189





000
SAUS44 KLCH 220655
MTRP92
METAR KP92 220653Z AUTO 24005KT 21/19 A2998 RMK AO1 SLP152 T02110189





000
SAUS44 KLCH 220555
MTRP92
METAR KP92 220553Z AUTO VRB04KT 21/19 A3001 RMK AO1 SLP161 P0001
60001 T02110189 10222 20206 402500178 58004





000
SAUS44 KLCH 220454
MTRP92
METAR KP92 220453Z AUTO VRB04KT 21/18 A3002 RMK AO1 SLP166 T02110183





000
SAUS44 KLCH 220355
MTRP92
METAR KP92 220353Z AUTO VRB04KT 21/18 A3004 RMK AO1 SLP170 T02110183





000
SAUS44 KLCH 220254
MTRP92
METAR KP92 220253Z AUTO 21004KT 21/18 A3002 RMK AO1 SLP165 T02110183
53002





000
SAUS44 KLCH 220154
MTRP92
METAR KP92 220153Z AUTO 21003KT 21/18 A3002 RMK AO1 SLP164 T02110183





000
SAUS44 KLCH 220055
MTRP92
METAR KP92 220053Z AUTO 00000KT 21/18 A3000 RMK AO1 SLP158 T02110178





000
SAUS44 KLCH 212354
MTRP92
METAR KP92 212353Z AUTO VRB03KT 22/18 A3001 RMK AO1 SLP163 T02220178
10250 20222 58018





000
SAUS44 KLCH 212254
MTRP92
METAR KP92 212253Z AUTO 00000KT 23/17 A3004 RMK AO1 SLP171 T02280172





000
SAUS44 KLCH 212154
MTRP92
METAR KP92 212153Z AUTO VRB04KT 23/18 A3005 RMK AO1 SLP175 T02330178





000
SAUS44 KLCH 212054
MTRP92
METAR KP92 212053Z AUTO 21006KT 23/17 A3007 RMK AO1 SLP181 T02280172





000
SAUS44 KLCH 211955
MTRP92
METAR KP92 211953Z AUTO 21006KT 23/17 A3009 RMK AO1 SLP187 T02330172





000
SAUS44 KLCH 211855
MTRP92
METAR KP92 211853Z AUTO VRB04KT 23/17 A3009 RMK AO1 SLP189 T02330172





000
SAUS44 KLCH 211754
MTRP92
METAR KP92 211753Z AUTO VRB04KT 23/17 A3010 RMK AO1 SLP193 T02330172
10233 20178 58013





000
SAUS44 KLCH 211654
MTRP92
METAR KP92 211653Z AUTO VRB04KT 23/17 A3012 RMK AO1 SLP198 T02330172





000
SAUS44 KLCH 211554
MTRP92
METAR KP92 211553Z AUTO VRB06KT 23/17 A3013 RMK AO1 SLP203 T02280172





000
SAUS44 KLCH 211454
MTRP92
METAR KP92 211453Z AUTO 14007KT 22/17 A3014 RMK AO1 SLP206 T02220172
53006





000
SAUS44 KLCH 211355
MTRP92
METAR KP92 211353Z AUTO 13008KT 21/17 A3013 RMK AO1 SLP202 T02110172





000
SAUS44 KLCH 211255
MTRP92
METAR KP92 211253Z AUTO 12003KT 19/17 A3013 RMK AO1 SLP201 T01890172
$





000
SAUS44 KLCH 211155
MTRP92
METAR KP92 211153Z AUTO 11003KT 18/17 A3012 RMK AO1 SLP200 70001
T01780167 10206 20178 $





000
SAUS44 KLCH 211054
MTRP92
METAR KP92 211053Z AUTO 12003KT 18/17 A3011 RMK AO1 SLP194 T01830167
$





000
SAUS44 KLCH 210854
MTRP92
METAR KP92 210853Z AUTO 12003KT 19/18 A3011 RMK AO1 SLP196 T01890178
53004





000
SAUS44 KLCH 210754
MTRP92
METAR KP92 210753Z AUTO 12003KT 19/18 A3011 RMK AO1 SLP194 T01890178





000
SAUS44 KLCH 210654
MTRP92
METAR KP92 210653Z AUTO 00000KT 19/18 A3010 RMK AO1 SLP194 T01890178





000
SAUS44 KLCH 210554
MTRP92
METAR KP92 210553Z AUTO 00000KT 20/18 A3010 RMK AO1 SLP192 T02000178
10239 20200 402780172 58005





000
SAUS44 KLCH 210455
MTRP92
METAR KP92 210453Z AUTO VRB03KT 21/18 A3011 RMK AO1 SLP195 T02060183





000
SAUS44 KLCH 210354
MTRP92
METAR KP92 210353Z AUTO 00000KT 20/18 A3012 RMK AO1 SLP199 T02000178





000
SAUS44 KLCH 210254
MTRP92
METAR KP92 210253Z AUTO 00000KT 21/18 A3012 RMK AO1 SLP197 T02060178
53010





000
SAUS44 KLCH 210155
MTRP92
METAR KP92 210153Z AUTO 00000KT 21/17 A3010 RMK AO1 SLP191 T02110172





000
SAUS44 KLCH 210054
MTRP92
METAR KP92 210053Z AUTO 15003KT 22/18 A3010 RMK AO1 SLP191 T02220183





000
SAUS44 KLCH 202354
MTRP92
METAR KP92 202353Z AUTO 00000KT 24/18 A3009 RMK AO1 SLP187 T02390183
10278 20239 56009





000
SAUS44 KLCH 202254
MTRP92
METAR KP92 202253Z AUTO 21004KT 25/18 A3009 RMK AO1 SLP188 T02500183





000
SAUS44 KLCH 202154
MTRP92
METAR KP92 202153Z AUTO VRB03KT 25/18 A3010 RMK AO1 SLP191 T02500183





000
SAUS44 KLCH 202054
MTRP92
METAR KP92 202053Z AUTO 24005KT 26/19 A3011 RMK AO1 SLP197 T02610189
58015





000
SAUS44 KLCH 201954
MTRP92
METAR KP92 201953Z AUTO VRB03KT 27/15 A3013 RMK AO1 SLP203 T02720150





000
SAUS44 KLCH 201854
MTRP92
METAR KP92 201853Z AUTO VRB04KT 27/17 A3014 RMK AO1 SLP207 T02670167





000
SAUS44 KLCH 201755
MTRP92
METAR KP92 201753Z AUTO 00000KT 24/17 A3016 RMK AO1 SLP212 T02440172
10267 20172 58004





000
SAUS44 KLCH 201654
MTRP92
METAR KP92 201653Z AUTO 24005KT 24/17 A3018 RMK AO1 SLP218 T02440172





000
SAUS44 KLCH 201554
MTRP92
METAR KP92 201553Z AUTO VRB05KT 26/14 A3018 RMK AO1 SLP220 T02560144





    US Dept of Commerce
    National Oceanic and Atmospheric Administration
    National Weather Service
    1325 East West Highway
    Silver Spring, MD 20910
    Page Author: NWS Internet Services Team
Disclaimer
Information Quality
Credits
Glossary
Privacy Policy
Freedom of Information Act (FOIA)
About Us
Career Opportunities